x

Virginia Beach 64 Nm East Of Virginia Beach, Va (44014) Wave Buoy

10:50 - Mon 22nd Dec 2014 All times are EST. -5 hours from GMT.

  • Sig Wave height 10.2ft
  • Swell Direction
  • Peak Period 8s
  • Average Period 7s
  • Wind
    2mph, 4mph gusts
  • Sea Temp 54°f
  • Ar Temp 59°f
  • Sea Pressure 1013.6mb
  • Virginia Beach 64 Nm East Of Virginia Beach, Va
  • Virginia Beach 64 Nm East Of Virginia Beach, Va

More Historic Weather Station data

Upgrade to MSW Pro to gain access to the past 30 days of data for over 8000 Wavebouys and Weather Stations around the globe.

Join Pro

Comparision Forecast

View Surf forecast
   
Seg 12/22 10:50 10ft 8s 7s 2 4 mph 1013.6mb 54f 59f
9:50 10ft 9s 7s 4 7 mph 1013.7mb 55f 60f
8:50 11.5ft 8s 7s 7 9 mph 1014.3mb 56f 60f
7:50 12ft 8s 7s 13 16 mph 1014.1mb 56f 61f
6:50 11.5ft 8s 7s 9 11 mph 1014.7mb 55f 60f
5:50 10ft 8s 6s 22 25 mph 1014.4mb 54f 60f
4:50 10ft 7s 6s 18 20 mph 1015.1mb 54f 60f
3:50 8ft 7s 6s 20 25 mph 1014.7mb 54f 59f
2:50 9ft 7s 6s 25 29 mph 1014.4mb 54f 59f
1:50 8ft 7s 6s 22 25 mph 1015.2mb 54f 58f
12:50 6.5ft 6s 5s 20 25 mph 1016.7mb 54f 58f
11:50 7ft 6s 5s 18 22 mph 1018.2mb 54f 58f
10:50 6ft 6s 5s 18 25 mph 1019.3mb 54f 58f
9:50 6ft 6s 5s 25 31 mph 1019.6mb 54f 56f
8:50 6ft 5s 5s 25 31 mph 1020.1mb 54f 54f
7:50 5ft 5s 4s 25 27 mph 1020.3mb 54f 55f
6:50 4.5ft 5s 4s 25 29 mph 1020.4mb 53f 54f
5:50 4ft 4s 4s 25 31 mph 1020.6mb 53f 53f
4:50 3.5ft 4s 4s 25 27 mph 1020.9mb 53f 52f
3:50 3.5ft 4s 4s 22 27 mph 1021.8mb 53f 51f
2:50 3ft 4s 4s 20 25 mph 1022.7mb 54f 51f
1:50 2.5ft 4s 4s 22 25 mph 1022.7mb 54f 50f
12:50 2.5ft 4s 4s 20 22 mph 1023.4mb 54f 50f
Dom 12/21 11:50 2.5ft 10s 4s 18 22 mph 1023.7mb 55f 49f
10:50 2.5ft 4s 4s 18 20 mph 1024.5mb 55f 49f
9:50 2.5ft 4s 4s 16 18 mph 1024.8mb 54f 48f
8:50 2.5ft 3s 4s 16 18 mph 1024.9mb 54f 48f
7:50 2.5ft 4s 4s 16 20 mph 1025.4mb 54f 48f
6:50 2.5ft 4s 4s 16 20 mph 1025.2mb 54f 47f
5:50 2.5ft 4s 4s 16 18 mph 1025mb 54f 47f
4:50 2.5ft 4s 4s 13 16 mph 1024.5mb 54f 46f
3:50 2.5ft 4s 4s 16 20 mph 1024.1mb 54f 45f
2:50 2.5ft 4s 4s 16 18 mph 1024.7mb 54f 45f
1:50 2.5ft 4s 4s 13 16 mph 1025mb 54f 45f
12:50 2.5ft 4s 4s 16 18 mph 1025mb 54f 45f
11:50 2.5ft 3s 4s 13 16 mph 1025.8mb 54f 45f
10:50 2.5ft 3s 4s 13 18 mph 1026.2mb 54f 45f
9:50 2ft 10s 4s 13 16 mph 1026.2mb 54f 45f
8:50 2ft 3s 4s 13 16 mph 1025.8mb 54f 44f
7:50 2ft 10s 4s 13 18 mph 1025.4mb 54f 44f
6:50 2ft 3s 4s 13 18 mph 1025.1mb 54f 43f
5:50 2ft 3s 4s 13 16 mph 1024.6mb 54f 44f
4:50 1.6ft 3s 4s 13 18 mph 1024mb 54f 43f
3:50 1.6ft 10s 4s 13 16 mph 1024.3mb 54f 43f
2:50 2ft 11s 4s 11 16 mph 1024.5mb 54f 44f
1:50 1.6ft 9s 4s 11 13 mph 1024.5mb 54f 43f
12:50 1.6ft 10s 4s 13 16 mph 1024mb 54f 44f
Sáb 12/20 11:50 1.6ft 8s 4s 11 16 mph 1024.5mb 54f 43f
10:50 1.6ft 5s 4s 11 13 mph 1024.8mb 54f 43f
9:50 2ft 5s 4s 11 16 mph 1024.9mb 54f 43f
8:50 2ft 5s 4s 11 13 mph 1024.9mb 54f 43f
7:50 2ft 5s 4s 11 16 mph 1024.7mb 54f 43f
6:50 2.5ft 6s 4s 13 16 mph 1024.6mb 54f 43f
5:50 2.5ft 6s 4s 11 18 mph 1024.2mb 54f 42f
4:50 2.5ft 6s 4s 13 20 mph 1024mb 54f 43f
3:50 2.5ft 6s 4s 13 16 mph 1023.5mb 54f 42f
2:50 2.5ft 6s 4s 13 16 mph 1023.3mb 54f 42f
1:50 2.5ft 6s 4s 11 16 mph 1023.7mb 54f 43f
12:50 2.5ft 6s 4s 9 13 mph 1024mb 55f 43f
11:50 2.5ft 5s 4s 11 13 mph 1024.5mb 55f 43f
10:50 2.5ft 5s 4s 9 16 mph 1025.4mb 55f 43f
9:50 2.5ft 5s 4s 9 13 mph 1025.8mb 55f 43f
8:50 2.5ft 5s 4s 9 13 mph 1024.8mb 55f 43f
7:50 2.5ft 5s 4s 13 16 mph 1023.7mb 55f 43f
6:50 2.5ft 5s 4s 9 11 mph 1024.1mb 55f 43f
5:50 2.5ft 5s 4s 11 16 mph 1022.9mb 55f 43f
4:50 2.5ft 5s 4s 11 16 mph 1022.8mb 55f 43f
3:50 3ft 6s 4s 11 16 mph 1022.8mb 55f 43f
2:50 3.5ft 5s 4s 11 16 mph 1022.7mb 55f 43f
1:50 3.5ft 5s 4s 13 18 mph 1022.5mb 55f 43f
12:50 4ft 5s 4s 13 18 mph 1022.7mb 55f 43f
Sex 12/19 11:50 3.5ft 5s 4s 18 22 mph 1022.7mb 55f 43f
10:50 4ft 5s 4s 16 20 mph 1022.7mb 54f 43f
9:50 3.5ft 5s 4s 18 22 mph 1022.1mb 54f 43f
8:50 4.5ft 5s 5s 18 25 mph 1022mb 54f 43f
7:50 4ft 5s 4s 18 25 mph 1021.9mb 55f 42f
6:50 4ft 5s 4s 18 22 mph 1021.4mb 55f 42f
5:50 4.5ft 6s 4s 20 25 mph 1020.6mb 55f 42f
4:50 3.5ft 5s 4s 20 27 mph 1020.5mb 55f 42f
3:50 4ft 5s 4s 18 22 mph 1019.6mb 55f 42f
2:50 3.5ft 5s 4s 18 22 mph 1018.8mb 55f 42f
1:50 3.5ft 5s 4s 18 22 mph 1018.7mb 55f 42f
12:50 3.5ft 5s 4s 18 22 mph 1019.2mb 55f 42f
11:50 3.5ft 5s 4s 18 25 mph 1019.6mb 55f 42f
10:50 3.5ft 5s 4s 16 20 mph 1020.4mb 55f 43f
9:50 3.5ft 4s 4s 18 22 mph 1020.2mb 55f 43f
8:50 3ft 5s 4s 18 22 mph 1019.6mb 55f 43f
7:50 2.5ft 5s 4s 16 20 mph 1019mb 55f 44f
6:50 2.5ft 5s 4s 13 18 mph 1018.4mb 55f 44f
5:50 2.5ft 5s 4s 13 18 mph 1018mb 55f 44f